Time;durP1;ratioP1;P1;durP2;ratioP2;P2;SDS_P1;SDS_P2;PMS_P1;PMS_P2;Temp;Humidity;BMP_temperature;BMP_pressure;BME280_temperature;BME280_humidity;BME280_pressure;Samples;Min_cycle;Max_cycle;Signal;HPM_P1;HPM_P2
2022/04/08 10:05:02;;;;;;;33.25;24.00;;;;;;;;;;6190305;23;20032;-92
2022/04/08 10:08:04;;;;;;;29.42;23.58;;;;;;;;;;6190975;23;20025;-96
2022/04/08 10:11:10;;;;;;;33.75;23.48;;;;;;;;;;6194668;23;20031;-95
2022/04/08 10:13:42;;;;;;;30.85;22.75;;;;;;;;;;6203920;23;20446;-95
2022/04/08 10:16:18;;;;;;;34.47;23.35;;;;;;;;;;6225363;23;20000;-96
2022/04/08 10:18:45;;;;;;;31.75;23.60;;;;;;;;;;6200587;23;19996;-96
2022/04/08 10:21:11;;;;;;;30.95;22.85;;;;;;;;;;6225287;23;20021;-93
2022/04/08 10:23:47;;;;;;;30.52;21.98;;;;;;;;;;6195633;23;20016;-95
2022/04/08 10:26:20;;;;;;;30.25;23.30;;;;;;;;;;6187888;23;20056;-89
2022/04/08 10:28:46;;;;;;;33.40;23.27;;;;;;;;;;6187346;23;20005;-90
2022/04/08 10:31:26;;;;;;;28.05;19.77;;;;;;;;;;6186009;23;20025;-91
2022/04/08 10:34:01;;;;;;;28.30;20.70;;;;;;;;;;6187581;23;20472;-90
2022/04/08 10:36:39;;;;;;;27.05;19.70;;;;;;;;;;6187011;23;19997;-89
2022/04/08 10:39:14;;;;;;;26.10;20.90;;;;;;;;;;6187039;23;20012;-91
2022/04/08 10:41:45;;;;;;;28.90;18.73;;;;;;;;;;6186513;23;20001;-93
2022/04/08 10:44:11;;;;;;;26.10;18.83;;;;;;;;;;6185590;23;20318;-90
2022/04/08 10:46:36;;;;;;;22.17;17.45;;;;;;;;;;6186871;23;20012;-87
2022/04/08 10:49:01;;;;;;;24.48;20.10;;;;;;;;;;6187075;23;20012;-92
2022/04/08 10:51:30;;;;;;;29.38;21.42;;;;;;;;;;6187057;23;20376;-92
2022/04/08 10:54:04;;;;;;;24.97;19.30;;;;;;;;;;6186943;23;20013;-92
2022/04/08 10:56:36;;;;;;;27.85;18.70;;;;;;;;;;6186954;23;20302;-90
2022/04/08 10:59:02;;;;;;;21.60;17.58;;;;;;;;;;6185275;23;20004;-89
2022/04/08 11:01:28;;;;;;;23.73;19.00;;;;;;;;;;6188071;23;20001;-92
2022/04/08 11:04:00;;;;;;;25.00;19.33;;;;;;;;;;6187492;23;20005;-91
2022/04/08 11:06:27;;;;;;;24.58;19.35;;;;;;;;;;6188121;23;20009;-89
2022/04/08 11:08:53;;;;;;;22.83;18.05;;;;;;;;;;6185155;23;20009;-91
2022/04/08 11:11:30;;;;;;;23.58;16.48;;;;;;;;;;6185894;23;20024;-92
2022/04/08 11:13:57;;;;;;;22.95;17.85;;;;;;;;;;6185807;23;20015;-91
2022/04/08 11:16:23;;;;;;;25.40;17.92;;;;;;;;;;6185746;23;20001;-91
2022/04/08 11:18:49;;;;;;;24.05;17.25;;;;;;;;;;6184714;23;20444;-90
2022/04/08 11:21:17;;;;;;;24.00;18.65;;;;;;;;;;6185311;23;20404;-91
2022/04/08 11:23:42;;;;;;;23.98;17.90;;;;;;;;;;6185651;23;20402;-91
2022/04/08 11:26:11;;;;;;;20.95;16.50;;;;;;;;;;6185282;23;20009;-92
2022/04/08 11:28:36;;;;;;;24.92;16.20;;;;;;;;;;6185155;23;20009;-91
2022/04/08 11:31:02;;;;;;;24.83;17.17;;;;;;;;;;6185400;23;20337;-90
2022/04/08 16:43:18;;;;;;;14.75;6.35;;;;;;;;;;6207181;23;20406;-94
2022/04/08 16:45:43;;;;;;;11.05;5.60;;;;;;;;;;6192358;23;20012;-93
2022/04/08 16:48:09;;;;;;;7.63;4.25;;;;;;;;;;6192703;23;20103;-94
2022/04/08 16:50:34;;;;;;;10.82;4.57;;;;;;;;;;6192587;23;20048;-92
2022/04/08 16:53:04;;;;;;;13.93;5.65;;;;;;;;;;6192742;23;20004;-92
2022/04/08 16:55:31;;;;;;;12.52;5.18;;;;;;;;;;6192495;23;20063;-92
2022/04/08 16:57:58;;;;;;;12.40;4.75;;;;;;;;;;6195623;23;20031;-92
2022/04/08 17:00:32;;;;;;;9.13;5.07;;;;;;;;;;6203489;23;20032;-93
2022/04/08 17:03:02;;;;;;;12.35;4.90;;;;;;;;;;6176742;23;19985;-88
2022/04/08 17:05:56;;;;;;;9.48;4.40;;;;;;;;;;6208675;23;20037;-89
2022/04/08 17:08:21;;;;;;;;;;;;;;;;;;6199857;23;20051;-88
2022/04/08 17:10:56;;;;;;;9.43;3.53;;;;;;;;;;6193150;23;19908;-88
2022/04/08 17:13:27;;;;;;;11.20;4.20;;;;;;;;;;6151353;23;20009;-91
2022/04/08 17:15:52;;;;;;;9.30;4.03;;;;;;;;;;6191468;23;20050;-94
2022/04/08 17:18:18;;;;;;;12.95;5.75;;;;;;;;;;6187678;23;20009;-95
2022/04/08 17:20:44;;;;;;;9.55;4.82;;;;;;;;;;6187347;23;20087;-95
2022/04/08 17:23:09;;;;;;;8.57;3.40;;;;;;;;;;6184860;23;20079;-89
2022/04/08 17:25:35;;;;;;;11.57;4.10;;;;;;;;;;6185303;23;20432;-96
2022/04/08 17:28:00;;;;;;;9.18;4.47;;;;;;;;;;6186527;23;20028;-91
2022/04/08 17:30:26;;;;;;;12.15;4.57;;;;;;;;;;6186852;23;20009;-90
2022/04/08 17:32:52;;;;;;;10.68;5.63;;;;;;;;;;6186498;23;20013;-90
2022/04/08 17:35:17;;;;;;;7.90;3.60;;;;;;;;;;6186511;23;20005;-89
2022/04/08 17:37:43;;;;;;;9.50;4.18;;;;;;;;;;6188015;23;20107;-93
2022/04/08 17:40:08;;;;;;;10.02;4.28;;;;;;;;;;6186749;23;20005;-90
2022/04/08 17:42:35;;;;;;;9.52;4.20;;;;;;;;;;6187454;23;20097;-90
2022/04/08 17:45:05;;;;;;;8.75;3.50;;;;;;;;;;6189911;23;20005;-93
2022/04/08 17:47:31;;;;;;;9.30;4.28;;;;;;;;;;6195840;23;20001;-92
2022/04/08 17:49:57;;;;;;;10.85;4.68;;;;;;;;;;6186365;23;20071;-92
2022/04/08 17:52:23;;;;;;;12.13;4.60;;;;;;;;;;6187023;23;20079;-92
2022/04/08 17:54:49;;;;;;;15.02;10.38;;;;;;;;;;6191154;23;20005;-91
2022/04/08 17:57:15;;;;;;;11.80;5.47;;;;;;;;;;6186098;23;20023;-93
2022/04/08 17:59:40;;;;;;;11.25;5.32;;;;;;;;;;6186133;23;20397;-92
2022/04/08 18:02:06;;;;;;;7.35;4.43;;;;;;;;;;6187423;23;20435;-92
2022/04/08 18:04:32;;;;;;;12.77;4.10;;;;;;;;;;6186035;23;20352;-91
2022/04/08 18:07:01;;;;;;;12.95;6.43;;;;;;;;;;6186419;23;20005;-92
2022/04/08 18:09:26;;;;;;;12.87;7.43;;;;;;;;;;6185705;23;20424;-92
2022/04/08 18:11:52;;;;;;;10.57;5.60;;;;;;;;;;6187484;23;20318;-91
2022/04/08 18:14:18;;;;;;;11.65;3.83;;;;;;;;;;6189168;23;20420;-92
2022/04/08 18:16:44;;;;;;;11.85;4.10;;;;;;;;;;6185702;23;20015;-88
2022/04/08 18:19:09;;;;;;;12.18;4.03;;;;;;;;;;6185418;23;20328;-90
2022/04/08 18:21:34;;;;;;;7.25;3.05;;;;;;;;;;6185646;23;20011;-89
2022/04/08 18:24:00;;;;;;;9.20;3.17;;;;;;;;;;6186744;23;20005;-91
2022/04/08 18:26:26;;;;;;;10.50;4.03;;;;;;;;;;6188814;23;20021;-89
2022/04/08 18:28:52;;;;;;;8.88;3.33;;;;;;;;;;6191023;23;20012;-89
2022/04/08 18:31:17;;;;;;;11.43;5.47;;;;;;;;;;6191669;23;20487;-90
2022/04/08 18:33:43;;;;;;;10.55;5.70;;;;;;;;;;6187921;23;20383;-91
2022/04/08 18:36:09;;;;;;;8.10;3.80;;;;;;;;;;6186281;23;20025;-90
2022/04/08 18:38:36;;;;;;;7.22;3.30;;;;;;;;;;6189289;23;20020;-91
2022/04/08 18:41:01;;;;;;;10.48;3.30;;;;;;;;;;6189188;23;20340;-91
2022/04/08 18:43:28;;;;;;;6.95;3.58;;;;;;;;;;6186257;23;20059;-91
2022/04/08 18:45:53;;;;;;;7.90;3.33;;;;;;;;;;6189290;23;20007;-92
2022/04/08 18:48:19;;;;;;;10.35;3.17;;;;;;;;;;6188110;23;20036;-93
2022/04/08 18:50:49;;;;;;;10.23;2.50;;;;;;;;;;6191525;23;20012;-90
2022/04/08 18:53:15;;;;;;;10.55;3.03;;;;;;;;;;6167892;23;20013;-93
2022/04/08 18:55:41;;;;;;;43.08;23.50;;;;;;;;;;6186521;23;20084;-92
2022/04/08 18:58:06;;;;;;;8.60;3.10;;;;;;;;;;6186107;23;20494;-91
2022/04/08 19:00:33;;;;;;;11.65;3.55;;;;;;;;;;6185448;23;20015;-91
2022/04/08 19:02:58;;;;;;;8.60;4.25;;;;;;;;;;6185784;23;20424;-94
2022/04/08 19:05:24;;;;;;;7.47;2.63;;;;;;;;;;6185375;23;20092;-92
2022/04/08 19:07:50;;;;;;;6.10;2.40;;;;;;;;;;6185522;23;20009;-94
2022/04/08 19:10:16;;;;;;;8.82;2.80;;;;;;;;;;6185677;23;20015;-93
2022/04/08 19:12:42;;;;;;;10.95;3.15;;;;;;;;;;6185487;23;20009;-91
2022/04/08 19:15:09;;;;;;;8.98;2.72;;;;;;;;;;6185599;23;20009;-93
2022/04/08 19:17:36;;;;;;;4.97;2.40;;;;;;;;;;6185444;23;20005;-94
2022/04/08 19:20:02;;;;;;;7.03;2.63;;;;;;;;;;6185599;23;20019;-91
2022/04/08 19:22:27;;;;;;;6.82;2.60;;;;;;;;;;6185265;23;20432;-92
2022/04/08 19:24:53;;;;;;;8.63;3.50;;;;;;;;;;6185213;23;20012;-92
2022/04/08 19:27:19;;;;;;;7.85;2.92;;;;;;;;;;6185274;23;20084;-90
2022/04/08 19:29:44;;;;;;;5.78;2.28;;;;;;;;;;6185057;23;20013;-87
2022/04/08 19:32:10;;;;;;;6.53;2.28;;;;;;;;;;6185528;23;20012;-89
2022/04/08 19:34:35;;;;;;;10.43;2.72;;;;;;;;;;6185115;23;20087;-90
2022/04/08 19:37:04;;;;;;;6.13;2.30;;;;;;;;;;6185153;23;20059;-90
2022/04/08 19:39:30;;;;;;;11.10;2.75;;;;;;;;;;6184877;23;20047;-91
2022/04/08 19:41:56;;;;;;;8.15;2.35;;;;;;;;;;6185398;23;20336;-91
2022/04/08 19:44:22;;;;;;;11.70;2.17;;;;;;;;;;6185905;23;20009;-93
2022/04/08 19:46:47;;;;;;;7.82;2.35;;;;;;;;;;6185275;23;20435;-91
2022/04/08 19:49:14;;;;;;;7.63;2.00;;;;;;;;;;6185449;23;20092;-92
2022/04/08 19:51:40;;;;;;;11.68;1.80;;;;;;;;;;6185171;23;20009;-92
2022/04/08 19:54:05;;;;;;;7.03;2.45;;;;;;;;;;6185390;23;20452;-92
2022/04/08 19:56:31;;;;;;;10.48;2.80;;;;;;;;;;6190667;23;20027;-94
2022/04/08 19:58:57;;;;;;;6.93;2.05;;;;;;;;;;6162507;23;20009;-90
2022/04/08 20:01:22;;;;;;;7.47;2.40;;;;;;;;;;6187799;23;20024;-91
2022/04/08 20:03:48;;;;;;;9.60;2.38;;;;;;;;;;6187701;23;20005;-94
2022/04/08 20:06:15;;;;;;;7.05;2.15;;;;;;;;;;6196968;23;20009;-92
2022/04/08 20:08:41;;;;;;;15.80;2.40;;;;;;;;;;6169903;23;20013;-93
2022/04/08 20:11:06;;;;;;;14.02;3.70;;;;;;;;;;6189009;23;20001;-91
2022/04/08 20:13:32;;;;;;;10.60;2.35;;;;;;;;;;6187256;23;20047;-93
2022/04/08 20:15:58;;;;;;;6.18;2.08;;;;;;;;;;6187273;23;20040;-94
2022/04/08 20:18:23;;;;;;;6.97;2.58;;;;;;;;;;6187569;23;20016;-92
2022/04/08 20:20:49;;;;;;;11.43;2.17;;;;;;;;;;6190021;23;20009;-93
2022/04/08 20:23:16;;;;;;;10.50;2.20;;;;;;;;;;6187238;23;20428;-92
2022/04/08 20:25:41;;;;;;;14.20;3.05;;;;;;;;;;6187159;23;20009;-93
2022/04/08 20:28:08;;;;;;;8.27;2.50;;;;;;;;;;6187060;23;20051;-91
2022/04/08 20:30:34;;;;;;;9.80;2.83;;;;;;;;;;6186926;23;20031;-89
2022/04/08 20:32:59;;;;;;;9.23;2.60;;;;;;;;;;6187121;23;20025;-90
2022/04/08 20:35:25;;;;;;;10.35;2.92;;;;;;;;;;6186831;23;20282;-90
2022/04/08 20:37:50;;;;;;;7.75;2.08;;;;;;;;;;6186804;23;20009;-92
2022/04/08 20:40:16;;;;;;;10.52;2.30;;;;;;;;;;6186744;23;20016;-91
2022/04/08 20:42:42;;;;;;;10.63;2.40;;;;;;;;;;6186622;23;20085;-91
2022/04/08 20:45:08;;;;;;;8.35;3.08;;;;;;;;;;6186740;23;20012;-91
2022/04/08 20:47:33;;;;;;;9.95;2.45;;;;;;;;;;6186833;23;20001;-92
2022/04/08 20:49:59;;;;;;;9.00;2.10;;;;;;;;;;6186682;23;20071;-91
2022/04/08 20:52:24;;;;;;;9.20;2.65;;;;;;;;;;6186829;23;20028;-91
2022/04/08 20:54:50;;;;;;;9.30;2.42;;;;;;;;;;6186882;23;20421;-91
2022/04/08 20:57:15;;;;;;;10.65;2.70;;;;;;;;;;6186544;23;20451;-91
2022/04/08 20:59:41;;;;;;;12.13;2.45;;;;;;;;;;6186469;23;20013;-91
2022/04/08 21:02:07;;;;;;;9.38;2.42;;;;;;;;;;6186396;23;20039;-89
2022/04/08 21:04:32;;;;;;;13.48;2.67;;;;;;;;;;6186617;23;20004;-90
2022/04/08 21:06:58;;;;;;;14.40;2.50;;;;;;;;;;6185828;23;20009;-91
2022/04/08 21:09:24;;;;;;;11.90;3.05;;;;;;;;;;6186441;23;20066;-91
2022/04/08 21:11:50;;;;;;;6.88;2.60;;;;;;;;;;6186437;23;20005;-91
2022/04/08 21:14:15;;;;;;;13.90;2.88;;;;;;;;;;6186455;23;20508;-90
2022/04/08 21:16:41;;;;;;;8.23;2.20;;;;;;;;;;6186231;23;20040;-89
2022/04/08 21:19:07;;;;;;;12.40;3.03;;;;;;;;;;6186359;23;20348;-91
2022/04/08 21:21:33;;;;;;;6.10;2.13;;;;;;;;;;6186563;23;20036;-91
